createdAt,value
2022-12-24T00:01:30.536Z,99691.22
2022-12-24T00:04:01.348Z,99694.95
2022-12-24T00:06:31.845Z,99685.31
2022-12-24T00:09:02.252Z,99677.36
2022-12-24T00:11:32.834Z,99684.16
2022-12-24T00:14:03.779Z,99692.62
2022-12-24T00:16:34.095Z,99690.05
2022-12-24T00:19:04.697Z,99693.28
2022-12-24T00:21:35.372Z,99687.84
2022-12-24T00:24:06.772Z,99686.14
2022-12-24T00:26:52.032Z,99689.08
2022-12-24T00:29:23.308Z,99684.78
2022-12-24T00:31:53.606Z,99685.66
2022-12-24T00:34:25.625Z,99686.28
2022-12-24T00:36:56.069Z,99685.05
2022-12-24T00:39:26.434Z,99684.56
2022-12-24T00:41:57.479Z,99688.30
2022-12-24T00:44:30.440Z,99690.48
2022-12-24T00:47:03.432Z,99687.45
2022-12-24T00:49:32.963Z,99690.18
2022-12-24T00:52:04.248Z,99687.07
2022-12-24T00:54:38.739Z,99690.10
2022-12-24T00:57:09.023Z,99685.84
2022-12-24T00:59:39.518Z,99687.73
2022-12-24T01:02:10.083Z,99692.82
2022-12-24T01:04:58.319Z,99689.48
2022-12-24T01:07:28.800Z,99690.76
2022-12-24T01:09:59.452Z,99685.48
2022-12-24T01:12:32.640Z,99692.94
2022-12-24T01:15:02.987Z,99678.51
2022-12-24T01:17:35.259Z,99682.59
2022-12-24T01:20:07.899Z,99688.03
2022-12-24T01:22:39.713Z,99679.21
2022-12-24T01:25:12.771Z,99688.20
2022-12-24T01:27:43.118Z,99686.84
2022-12-24T01:30:15.988Z,99683.60
2022-12-24T01:32:49.730Z,99684.47
2022-12-24T01:35:23.889Z,99684.97
2022-12-24T01:37:53.873Z,99689.04
2022-12-24T01:40:43.300Z,99688.55
2022-12-24T01:43:26.469Z,99677.07
2022-12-24T01:46:01.590Z,99677.91
2022-12-24T01:48:46.609Z,99675.39
2022-12-24T01:51:31.475Z,99675.58
2022-12-24T01:54:22.085Z,99674.22
2022-12-24T01:56:55.501Z,99671.84
2022-12-24T01:59:25.665Z,99670.27
2022-12-24T02:01:56.640Z,99662.77
2022-12-24T02:04:36.283Z,99664.44
2022-12-24T02:07:06.797Z,99666.14
2022-12-24T02:09:37.594Z,99660.36
2022-12-24T02:12:08.371Z,99657.51
2022-12-24T02:14:38.920Z,99654.80
2022-12-24T02:17:31.734Z,99652.20
2022-12-24T02:20:36.729Z,99650.45
2022-12-24T02:23:42.999Z,99651.50
2022-12-24T02:26:18.999Z,99652.55
2022-12-24T02:29:08.401Z,99647.11
2022-12-24T02:31:46.407Z,99649.48
2022-12-24T02:34:25.296Z,99658.61
2022-12-24T02:37:00.486Z,99658.61
2022-12-24T02:39:43.015Z,99656.41
2022-12-24T02:42:13.702Z,99655.27
2022-12-24T02:44:52.409Z,99654.92
2022-12-24T02:47:24.140Z,99658.61
2022-12-24T02:49:58.679Z,99646.38
2022-12-24T02:52:36.455Z,99641.27
2022-12-24T02:55:12.978Z,99642.81
2022-12-24T02:57:57.911Z,99640.92
2022-12-24T03:00:27.230Z,99634.66
2022-12-24T03:03:01.828Z,99637.38
2022-12-24T03:05:39.087Z,99641.59
2022-12-24T03:08:15.105Z,99640.75
2022-12-24T03:10:51.117Z,99637.84
2022-12-24T03:13:22.765Z,99639.91
2022-12-24T03:15:53.092Z,99637.38
2022-12-24T03:18:29.386Z,99635.00
2022-12-24T03:21:01.074Z,99638.16
2022-12-24T03:23:32.073Z,99636.41
2022-12-24T03:26:02.583Z,99641.32
2022-12-24T03:28:33.063Z,99640.48
2022-12-24T03:31:09.151Z,99648.86
2022-12-24T03:33:39.497Z,99643.73
2022-12-24T03:36:10.585Z,99645.09
2022-12-24T03:38:41.080Z,99646.45
2022-12-24T03:41:14.216Z,99649.04
2022-12-24T03:43:44.699Z,99655.31
2022-12-24T03:46:15.255Z,99653.51
2022-12-24T03:48:45.932Z,99648.78
2022-12-24T03:51:23.353Z,99651.70
2022-12-24T03:53:55.275Z,99653.56
2022-12-24T03:56:25.576Z,99651.23
2022-12-24T03:58:55.855Z,99649.04
2022-12-24T04:01:27.161Z,99653.51
2022-12-24T04:03:57.871Z,99660.85
2022-12-24T04:06:31.437Z,99659.48
2022-12-24T04:09:06.413Z,99660.53
2022-12-24T04:11:36.899Z,99661.77
2022-12-24T04:16:51.429Z,99650.76
2022-12-24T04:19:22.873Z,99658.34
2022-12-24T04:21:55.307Z,99656.63
2022-12-24T04:24:26.582Z,99666.14
2022-12-24T04:27:00.493Z,99666.88
2022-12-24T04:29:33.244Z,99663.64
2022-12-24T04:32:04.414Z,99665.17
2022-12-24T04:34:54.198Z,99663.50
2022-12-24T04:37:24.838Z,99666.75
2022-12-24T04:39:55.462Z,99671.31
2022-12-24T04:42:26.914Z,99668.59
2022-12-24T04:45:00.957Z,99666.75
2022-12-24T04:47:33.710Z,99676.58
2022-12-24T04:50:04.223Z,99666.75
2022-12-24T04:52:39.819Z,99668.42
2022-12-24T04:55:29.385Z,99667.89
2022-12-24T05:00:43.433Z,99664.78
2022-12-24T05:03:13.958Z,99671.41
2022-12-24T05:05:44.486Z,99671.41
2022-12-24T05:08:14.848Z,99662.73
2022-12-24T05:10:45.480Z,99670.56
2022-12-24T05:13:15.883Z,99674.25
2022-12-24T05:15:47.403Z,99666.41
2022-12-24T05:18:18.687Z,99674.52
2022-12-24T05:20:50.225Z,99676.20
2022-12-24T05:23:40.928Z,99675.67
2022-12-24T05:26:26.350Z,99675.67
2022-12-24T05:28:58.162Z,99676.02
2022-12-24T05:31:31.621Z,99661.55
2022-12-24T05:34:01.933Z,99662.42
2022-12-24T05:36:32.420Z,99663.26
2022-12-24T05:39:02.812Z,99658.97
2022-12-24T05:41:33.111Z,99665.62
2022-12-24T05:44:03.402Z,99666.89
2022-12-24T05:46:33.857Z,99665.87
2022-12-24T05:49:04.264Z,99669.44
2022-12-24T05:51:34.682Z,99668.39
2022-12-24T05:54:05.501Z,99661.09
2022-12-24T05:56:35.941Z,99658.03
2022-12-24T05:59:06.207Z,99664.66
2022-12-24T06:01:36.867Z,99662.45
2022-12-24T06:04:07.916Z,99664.13
2022-12-24T06:06:38.514Z,99664.66
2022-12-24T06:09:08.972Z,99665.80
2022-12-24T06:11:39.397Z,99662.77
2022-12-24T06:14:09.500Z,99657.15
2022-12-24T06:16:42.981Z,99657.25
2022-12-24T06:19:13.446Z,99661.14
2022-12-24T06:21:44.165Z,99656.75
2022-12-24T06:24:14.569Z,99653.51
2022-12-24T06:26:44.641Z,99647.55
2022-12-24T06:29:14.840Z,99648.91
2022-12-24T06:31:45.676Z,99646.19
2022-12-24T06:34:16.028Z,99643.78
2022-12-24T06:36:46.594Z,99642.42
2022-12-24T06:39:17.154Z,99644.30
2022-12-24T06:41:47.568Z,99645.14
2022-12-24T06:44:20.305Z,99633.77
2022-12-24T06:46:51.233Z,99645.92
2022-12-24T06:49:21.865Z,99641.32
2022-12-24T06:51:52.947Z,99641.14
2022-12-24T06:54:23.950Z,99628.55
2022-12-24T06:56:57.135Z,99637.37
2022-12-24T06:59:26.544Z,99627.32
2022-12-24T07:01:57.207Z,99621.05
2022-12-24T07:04:28.177Z,99621.88
2022-12-24T07:06:58.835Z,99626.30
2022-12-24T07:09:32.400Z,99631.41
2022-12-24T07:12:02.692Z,99623.89
2022-12-24T07:14:32.818Z,99621.30
2022-12-24T07:17:03.148Z,99612.62
2022-12-24T07:19:33.240Z,99608.53
2022-12-24T07:22:03.524Z,99615.68
2022-12-24T07:24:37.704Z,99613.98
2022-12-24T07:27:11.006Z,99616.52
2022-12-24T07:29:41.943Z,99617.88
2022-12-24T07:32:12.219Z,99587.84
2022-12-24T07:34:42.643Z,99587.84
2022-12-24T07:37:15.031Z,99615.16
2022-12-24T07:39:47.343Z,99614.84
2022-12-24T07:42:17.440Z,99619.76
2022-12-24T07:44:47.730Z,99618.71
2022-12-24T07:47:18.788Z,99616.52
2022-12-24T07:50:10.486Z,99617.56
2022-12-24T07:52:41.096Z,99620.59
2022-12-24T07:55:11.726Z,99615.98
2022-12-24T07:57:44.754Z,99618.19
2022-12-24T08:00:15.585Z,99615.16
2022-12-24T08:02:47.810Z,99613.27
2022-12-24T08:05:19.101Z,99607.83
2022-12-24T08:07:50.226Z,99605.32
2022-12-24T08:10:20.905Z,99607.70
2022-12-24T08:12:51.536Z,99609.90
2022-12-24T08:15:22.403Z,99609.59
2022-12-24T08:17:54.608Z,99609.41
2022-12-24T08:20:45.532Z,99615.81
2022-12-24T08:23:16.314Z,99612.03
2022-12-24T08:25:46.977Z,99615.47
2022-12-24T08:28:19.557Z,99615.47
2022-12-24T08:30:51.631Z,99607.83
2022-12-24T08:33:22.978Z,99603.56
2022-12-24T08:36:13.772Z,99600.20
2022-12-24T08:38:44.237Z,99605.94
2022-12-24T08:41:17.403Z,99604.05
2022-12-24T08:43:47.953Z,99595.80
2022-12-24T08:46:19.132Z,99605.42
2022-12-24T08:48:53.550Z,99605.42
2022-12-24T08:51:24.057Z,99608.35
2022-12-24T08:53:54.361Z,99611.38
2022-12-24T08:56:29.939Z,99615.81
2022-12-24T08:59:00.583Z,99605.94
2022-12-24T09:01:31.027Z,99608.14
2022-12-24T09:04:03.995Z,99598.83
2022-12-24T09:06:34.859Z,99590.98
2022-12-24T09:09:25.515Z,99594.75
2022-12-24T09:11:55.715Z,99602.39
2022-12-24T09:14:26.059Z,99609.01
2022-12-24T09:16:57.179Z,99605.42
2022-12-24T09:19:27.800Z,99600.84
2022-12-24T09:21:58.393Z,99599.98
2022-12-24T09:24:29.032Z,99599.14
2022-12-24T09:29:50.781Z,99598.31
2022-12-24T09:32:21.478Z,99598.31
2022-12-24T09:37:43.127Z,99596.11
2022-12-24T09:40:16.116Z,99593.39
2022-12-24T09:42:57.086Z,99590.15
2022-12-24T09:45:33.129Z,99589.62
2022-12-24T09:48:06.225Z,99579.79
2022-12-24T09:50:44.085Z,99580.63
2022-12-24T09:53:29.300Z,99580.10
2022-12-24T09:56:00.225Z,99582.52
2022-12-24T09:58:39.016Z,99571.41
2022-12-24T10:01:09.588Z,99576.02
2022-12-24T10:03:40.316Z,99575.71
2022-12-24T10:06:15.863Z,99576.55
2022-12-24T10:09:00.747Z,99576.86
2022-12-24T10:11:59.007Z,99576.86
2022-12-24T10:17:19.207Z,99577.45
2022-12-24T10:20:11.239Z,99584.18
2022-12-24T10:23:03.678Z,99579.58
2022-12-24T10:25:48.653Z,99574.66
2022-12-24T10:28:27.701Z,99572.47
2022-12-24T10:31:00.316Z,99572.98
2022-12-24T10:33:57.133Z,99581.46
2022-12-24T10:36:30.221Z,99579.27
2022-12-24T10:39:02.021Z,99572.47
2022-12-24T10:41:32.829Z,99575.00
2022-12-24T10:44:03.695Z,99580.10
2022-12-24T10:46:39.750Z,99576.86
2022-12-24T10:49:12.850Z,99575.49
2022-12-24T10:52:02.584Z,99575.49
2022-12-24T10:57:09.590Z,99561.89
2022-12-24T10:59:48.405Z,99568.20
2022-12-24T11:02:38.605Z,99566.84
2022-12-24T11:05:11.860Z,99569.03
2022-12-24T11:07:42.789Z,99563.59
2022-12-24T11:10:15.836Z,99573.95
2022-12-24T11:13:20.319Z,99577.32
2022-12-24T11:15:38.813Z,99572.59
2022-12-24T11:18:11.588Z,99576.36
2022-12-24T11:20:42.038Z,99572.59
2022-12-24T11:23:15.731Z,99577.32
2022-12-24T11:25:47.691Z,99573.95
2022-12-24T11:28:32.759Z,99567.98
2022-12-24T11:31:08.808Z,99566.09
2022-12-24T11:33:50.289Z,99567.98
2022-12-24T11:36:22.115Z,99569.69
2022-12-24T11:38:56.014Z,99578.86
2022-12-24T11:41:26.667Z,99565.97
2022-12-24T11:44:05.688Z,99575.62
2022-12-24T11:46:40.783Z,99576.14
2022-12-24T11:49:25.190Z,99580.75
2022-12-24T11:54:50.497Z,99581.41
2022-12-24T11:57:22.337Z,99580.35
2022-12-24T11:59:53.081Z,99571.54
2022-12-24T12:02:32.919Z,99573.95
2022-12-24T12:05:08.034Z,99576.98
2022-12-24T12:07:39.133Z,99579.39
2022-12-24T12:10:18.663Z,99574.60
2022-12-24T12:12:52.107Z,99574.26
2022-12-24T12:15:47.294Z,99574.38
2022-12-24T12:18:24.756Z,99575.96
2022-12-24T12:21:00.572Z,99582.42
2022-12-24T12:23:42.584Z,99584.13
2022-12-24T12:26:21.932Z,99586.84
2022-12-24T12:29:02.939Z,99582.23
2022-12-24T12:31:50.177Z,99578.98
2022-12-24T12:34:52.632Z,99581.06
2022-12-24T12:37:29.315Z,99589.56
2022-12-24T12:39:59.886Z,99583.07
2022-12-24T12:42:37.059Z,99587.98
2022-12-24T12:45:27.893Z,99592.19
2022-12-24T12:48:15.444Z,99590.83
2022-12-24T12:50:51.597Z,99586.05
2022-12-24T12:53:27.605Z,99585.33
2022-12-24T12:56:16.275Z,99581.13
2022-12-24T12:59:06.505Z,99581.66
2022-12-24T13:02:15.947Z,99586.75
2022-12-24T13:04:57.854Z,99587.09
2022-12-24T13:08:00.682Z,99585.73
2022-12-24T13:10:36.301Z,99589.59
2022-12-24T13:13:35.451Z,99589.29
2022-12-24T13:16:30.913Z,99589.29
2022-12-24T13:19:09.287Z,99584.87
2022-12-24T13:21:39.532Z,99587.41
2022-12-24T13:24:29.210Z,99595.56
2022-12-24T13:27:32.737Z,99598.28
2022-12-24T13:30:25.115Z,99605.73
2022-12-24T13:32:58.674Z,99604.41
2022-12-24T13:35:37.281Z,99603.61
2022-12-24T13:38:15.003Z,99611.53
2022-12-24T13:40:45.547Z,99609.36
2022-12-24T13:43:16.361Z,99616.72
2022-12-24T13:45:48.089Z,99611.52
2022-12-24T13:48:26.470Z,99616.72
2022-12-24T13:50:57.485Z,99607.95
2022-12-24T13:53:36.802Z,99616.86
2022-12-24T13:56:11.786Z,99611.87
2022-12-24T13:58:50.191Z,99608.03
2022-12-24T14:01:25.112Z,99606.26
2022-12-24T14:03:56.885Z,99606.91
2022-12-24T14:06:42.028Z,99615.39
2022-12-24T14:09:19.805Z,99619.94
2022-12-24T14:12:02.232Z,99619.84
2022-12-24T14:14:37.686Z,99621.31
2022-12-24T14:17:13.042Z,99617.47
2022-12-24T14:19:45.425Z,99614.86
2022-12-24T14:22:18.385Z,99607.44
2022-12-24T14:24:52.432Z,99613.00
2022-12-24T14:27:43.770Z,99614.27
2022-12-24T14:30:22.173Z,99607.03
2022-12-24T14:32:53.646Z,99608.62
2022-12-24T14:35:29.501Z,99608.73
2022-12-24T14:38:04.268Z,99603.74
2022-12-24T14:40:39.631Z,99607.45
2022-12-24T14:43:29.063Z,99603.97
2022-12-24T14:46:18.979Z,99608.62
2022-12-24T14:49:02.091Z,99604.61
2022-12-24T14:51:49.955Z,99599.91
2022-12-24T14:54:32.834Z,99605.70
2022-12-24T14:57:17.835Z,99601.69
2022-12-24T14:59:55.794Z,99607.06
2022-12-24T15:02:48.127Z,99603.38
2022-12-24T15:05:22.593Z,99607.05
2022-12-24T15:07:56.805Z,99606.14
2022-12-24T15:10:31.819Z,99606.97
2022-12-24T15:13:19.465Z,99611.47
2022-12-24T15:15:52.838Z,99610.55
2022-12-24T15:18:29.717Z,99604.57
2022-12-24T15:21:07.415Z,99614.42
2022-12-24T15:23:40.341Z,99608.13
2022-12-24T15:26:12.697Z,99620.10
2022-12-24T15:28:42.929Z,99608.02
2022-12-24T15:31:25.587Z,99607.72
2022-12-24T15:33:56.948Z,99609.58
2022-12-24T15:36:37.954Z,99607.08
2022-12-24T15:39:09.650Z,99604.24
2022-12-24T15:41:44.892Z,99612.62
2022-12-24T15:44:16.025Z,99617.97
2022-12-24T15:46:46.425Z,99618.19
2022-12-24T15:49:16.352Z,99617.55
2022-12-24T15:51:50.264Z,99630.05
2022-12-24T15:54:22.631Z,99637.05
2022-12-24T15:56:56.232Z,99634.63
2022-12-24T15:59:32.243Z,99641.45
2022-12-24T16:02:33.712Z,99638.41
2022-12-24T16:05:30.290Z,99642.39
2022-12-24T16:08:20.977Z,99643.00
2022-12-24T16:10:53.984Z,99647.28
2022-12-24T16:13:37.084Z,99640.23
2022-12-24T16:16:18.059Z,99642.88
2022-12-24T16:18:57.478Z,99637.48
2022-12-24T16:21:39.184Z,99634.94
2022-12-24T16:24:27.555Z,99634.94
2022-12-24T16:26:58.020Z,99638.00
2022-12-24T16:29:28.798Z,99633.39
2022-12-24T16:32:00.120Z,99635.59
2022-12-24T16:34:33.403Z,99628.61
2022-12-24T16:37:03.824Z,99617.18
2022-12-24T16:39:36.102Z,99623.27
2022-12-24T16:42:23.651Z,99624.11
2022-12-24T16:44:58.285Z,99627.97
2022-12-24T16:47:33.830Z,99624.00
2022-12-24T16:50:03.206Z,99631.80
2022-12-24T16:52:34.556Z,99628.31
2022-12-24T16:55:05.086Z,99624.56
2022-12-24T16:57:36.239Z,99622.25
2022-12-24T17:00:09.214Z,99617.97
2022-12-24T17:02:39.926Z,99610.63
2022-12-24T17:05:11.326Z,99609.37
2022-12-24T17:07:44.004Z,99603.50
2022-12-24T17:10:16.983Z,99601.41
2022-12-24T17:12:47.295Z,99595.73
2022-12-24T17:15:17.477Z,99590.92
2022-12-24T17:17:50.634Z,99592.39
2022-12-24T17:20:24.579Z,99590.91
2022-12-24T17:22:55.521Z,99584.09
2022-12-24T17:25:26.370Z,99579.58
2022-12-24T17:27:59.353Z,99581.05
2022-12-24T17:30:30.188Z,99572.48
2022-12-24T17:33:00.575Z,99567.43
2022-12-24T17:35:31.187Z,99559.02
2022-12-24T17:38:01.675Z,99555.37
2022-12-24T17:40:32.623Z,99547.29
2022-12-24T17:43:03.059Z,99544.66
2022-12-24T17:45:33.323Z,99537.09
2022-12-24T17:48:04.004Z,99536.16
2022-12-24T17:50:34.163Z,99537.63
2022-12-24T17:53:07.860Z,99530.05
2022-12-24T17:55:40.240Z,99524.48
2022-12-24T17:58:10.673Z,99508.34
2022-12-24T18:00:41.300Z,99507.52
2022-12-24T18:03:14.830Z,99498.99
2022-12-24T18:05:45.140Z,99502.25
2022-12-24T18:08:15.442Z,99489.67
2022-12-24T18:10:47.154Z,99476.77
2022-12-24T18:13:19.569Z,99479.19
2022-12-24T18:15:49.749Z,99468.17
2022-12-24T18:18:20.131Z,99464.58
2022-12-24T18:20:50.979Z,99454.09
2022-12-24T18:23:22.223Z,99459.25
2022-12-24T18:25:53.341Z,99449.08
2022-12-24T18:28:24.560Z,99448.67
2022-12-24T18:31:05.939Z,99464.50
2022-12-24T18:33:36.240Z,99457.05
2022-12-24T18:36:06.532Z,99448.27
2022-12-24T18:38:38.342Z,99448.47
2022-12-24T18:41:14.289Z,99453.28
2022-12-24T18:43:44.508Z,99455.91
2022-12-24T18:46:19.919Z,99438.41
2022-12-24T18:48:51.244Z,99429.30
2022-12-24T18:51:24.111Z,99429.49
2022-12-24T18:53:54.699Z,99422.05
2022-12-24T18:56:26.392Z,99420.08
2022-12-24T18:58:59.248Z,99406.54
2022-12-24T19:01:34.272Z,99405.70
2022-12-24T19:04:04.660Z,99402.15
2022-12-24T19:06:34.939Z,99395.23
2022-12-24T19:09:05.204Z,99390.61
2022-12-24T19:11:35.852Z,99388.19
2022-12-24T19:14:06.207Z,99383.06
2022-12-24T19:16:38.058Z,99369.53
2022-12-24T19:19:09.871Z,99378.55
2022-12-24T19:21:39.901Z,99377.81
2022-12-24T19:24:13.332Z,99376.45
2022-12-24T19:26:46.718Z,99368.37
2022-12-24T19:29:17.677Z,99358.89
2022-12-24T19:31:48.360Z,99351.34
2022-12-24T19:34:18.798Z,99350.81
2022-12-24T19:36:51.528Z,99343.16
2022-12-24T19:39:28.190Z,99342.86
2022-12-24T19:41:54.903Z,99347.69
2022-12-24T19:44:25.638Z,99345.26
2022-12-24T19:46:56.176Z,99342.23
2022-12-24T19:49:26.657Z,99334.28
2022-12-24T19:51:56.993Z,99333.75
2022-12-24T19:54:27.990Z,99330.92
2022-12-24T19:56:58.160Z,99326.00
2022-12-24T19:59:28.791Z,99327.03
2022-12-24T20:01:59.275Z,99323.68
2022-12-24T20:04:30.146Z,99320.12
2022-12-24T20:07:01.080Z,99314.90
2022-12-24T20:09:33.114Z,99306.39
2022-12-24T20:12:04.575Z,99304.19
2022-12-24T20:14:35.094Z,99294.88
2022-12-24T20:17:05.648Z,99290.80
2022-12-24T20:19:36.337Z,99277.89
2022-12-24T20:22:07.273Z,99275.91
2022-12-24T20:24:37.914Z,99276.44
2022-12-24T20:27:10.859Z,99275.27
2022-12-24T20:29:41.715Z,99272.55
2022-12-24T20:32:15.161Z,99275.27
2022-12-24T20:34:45.661Z,99274.23
2022-12-24T20:37:15.839Z,99262.27
2022-12-24T20:39:46.434Z,99257.45
2022-12-24T20:42:16.986Z,99260.57
2022-12-24T20:44:47.386Z,99254.16
2022-12-24T20:47:17.715Z,99254.58
2022-12-24T20:49:52.873Z,99249.22
2022-12-24T20:52:23.713Z,99243.09
2022-12-24T20:54:54.881Z,99233.34
2022-12-24T20:57:30.054Z,99233.74
2022-12-24T20:59:57.206Z,99210.52
2022-12-24T21:02:30.342Z,99229.93
2022-12-24T21:05:05.292Z,99230.66
2022-12-24T21:07:33.101Z,99224.22
2022-12-24T21:10:03.539Z,99221.05
2022-12-24T21:12:53.811Z,99216.52
2022-12-24T21:15:26.270Z,99219.43
2022-12-24T21:17:56.555Z,99218.25
2022-12-24T21:20:28.067Z,99210.69
2022-12-24T21:23:01.282Z,99197.99
2022-12-24T21:25:31.721Z,99196.81
2022-12-24T21:28:02.060Z,99187.11
2022-12-24T21:30:33.250Z,99181.52
2022-12-24T21:33:06.165Z,99183.36
2022-12-24T21:35:39.651Z,99183.36
2022-12-24T21:38:11.416Z,99184.90
2022-12-24T21:40:42.078Z,99173.53
2022-12-24T21:43:12.824Z,99166.58
2022-12-24T21:45:46.630Z,99162.86
2022-12-24T21:48:36.679Z,99162.50
2022-12-24T21:51:07.460Z,99152.48
2022-12-24T21:53:48.024Z,99152.97
2022-12-24T21:56:18.687Z,99153.03
2022-12-24T21:58:50.345Z,99148.80
2022-12-24T22:01:23.401Z,99151.69
2022-12-24T22:03:54.189Z,99142.51
2022-12-24T22:06:43.011Z,99130.94
2022-12-24T22:09:30.977Z,99134.05
2022-12-24T22:12:01.436Z,99138.30
2022-12-24T22:14:33.834Z,99123.14
2022-12-24T22:17:07.748Z,99123.97
2022-12-24T22:19:38.942Z,99131.77
2022-12-24T22:22:09.576Z,99141.57
2022-12-24T22:24:39.834Z,99145.05
2022-12-24T22:27:10.345Z,99164.72
2022-12-24T22:29:43.945Z,99175.02
2022-12-24T22:32:12.982Z,99177.46
2022-12-24T22:34:43.367Z,99182.31
2022-12-24T22:37:13.884Z,99189.67
2022-12-24T22:39:44.396Z,99183.34
2022-12-24T22:42:15.109Z,99179.70
2022-12-24T22:44:45.602Z,99179.70
2022-12-24T22:47:16.329Z,99178.55
2022-12-24T22:49:46.590Z,99183.19
2022-12-24T22:52:17.093Z,99185.59
2022-12-24T22:54:47.440Z,99191.59
2022-12-24T22:57:18.031Z,99199.49
2022-12-24T22:59:49.122Z,99202.44
2022-12-24T23:02:27.895Z,99205.08
2022-12-24T23:04:56.807Z,99214.34
2022-12-24T23:07:26.960Z,99225.80
2022-12-24T23:09:58.669Z,99228.45
2022-12-24T23:12:36.069Z,99229.49
2022-12-24T23:15:06.123Z,99225.39
2022-12-24T23:17:36.373Z,99227.00
2022-12-24T23:20:11.429Z,99223.65
2022-12-24T23:22:41.705Z,99219.02
2022-12-24T23:25:12.160Z,99221.99
2022-12-24T23:27:42.938Z,99223.56
2022-12-24T23:30:13.434Z,99227.58
2022-12-24T23:32:43.614Z,99232.95
2022-12-24T23:35:14.154Z,99226.37
2022-12-24T23:37:44.671Z,99236.96
2022-12-24T23:40:15.324Z,99233.31
2022-12-24T23:42:45.885Z,99228.59
2022-12-24T23:45:18.584Z,99222.55
2022-12-24T23:47:49.240Z,99220.56
2022-12-24T23:50:21.423Z,99219.64
2022-12-24T23:52:54.839Z,99221.75
2022-12-24T23:55:25.367Z,99216.65
2022-12-24T23:57:56.760Z,99237.12
